航空気象通報

ウインドサーファーのための航空気象通報による風予報です。

10/31-11/1の航空気象通報(国内、海外)

2008年10月31日 23時08分00秒 | TAF
羽田空港
TAF RJTT 310844Z 311812 22014KT 9999 FEW030
BECMG 2124 34018KT
TEMPO 2124 34020G30KT
BECMG 0609 04008KT
日本時間1日03-06時:220度から14ノットの風
06-09時:風が変化
09-15時:340度から18ノットの風
15-18時:風が変化
18-21時:040度から8ノットの風
但し、06-09時:一時、340度から20ノット、突風30ノット


那覇空港
TAF ROAH 310840Z 311812 36010KT 9999 FEW020 SCT030
日本時間1日03-21時:360度から10ノットの風


マウイのカフルイ空港
PHOG 311133Z 311212 05008KT P6SM FEW040 BKN060
FM1700 05012G18KT P6SM SCT050
FM2000 04018G25KT P6SM SCT050
FM0400 04015KT P6SM SCT050
ハワイ時間31日02-07時:050度から8ノットの風

07-10時:050度から12ノット、突風18ノット
10-20時:040度から18ノット、突風25ノット
20時-1日02時:040度から15ノットの風


サイパン空港
PGSN 311120Z 311212 08009KT P6SM VCSH SCT020
マリアナ時間31日22時-1日22時:080度から9ノットの風

コメント
この記事をはてなブックマークに追加

10/30-31の航空気象通報(国内、海外)

2008年10月30日 21時56分01秒 | TAF
羽田空港
TAF RJTT 300841Z 301812 36008KT 9999 FEW030
BECMG 0003 18010KT
BECMG 0609 20020KT
TEMPO 0612 22022G32KT
日本時間31日03-09時:360度から8ノットの風
09-12時:風が変化
12-15時:180度から10ノットの風
15-18時:風が変化
18-21時:200度から20ノットの風
但し、15-21時:一時、220度から22ノット、突風32ノット


那覇空港
TAF ROAH 300839Z 301812 20010KT 9999 FEW020 SCT040
日本時間31日03-21時:200度から10ノットの風


マウイのカフルイ空港
PHOG 301138Z 301212 02008KT P6SM FEW060
FM2100 04018G25KT P6SM SCT030 SCT060
FM0400 04012KT P6SM SCT030 SCT060
ハワイ時間30日02-11時:020度から8ノットの風
09-18時:040度から18ノット、突風25ノット
18時-31日02時:040度から12ノットの風


サイパン空港
PGSN 301131Z 301212 06008G18KT P6SM VCSH SCT020
マリアナ時間30日22時-31日22時:060度から8ノット、突風18ノット

コメント
この記事をはてなブックマークに追加

10/29-30の航空気象通報(国内、海外)

2008年10月29日 21時56分04秒 | TAF
羽田空港
TAF RJTT 290845Z 291812 02010KT 9999 FEW030 SCT050
BECMG 0609 09008KT
日本時間30日03-15時:020度から10ノットの風
15-18時:風が変化
18-21時:090度から8ノットの風


那覇空港
TAF ROAH 290840Z 291812 08005KT 9999 FEW030
BECMG 2124 11006KT
日本時間30日03-06時:080度から5ノットの風
06-09時:風が変化
09-21時:110度から6ノットの風


マウイのカフルイ空港
PHOG 291135Z 291212 VRB04KT P6SM BKN200
FM1900 03015KT P6SM SCT050 BKN250
FM0600 03008KT P6SM FEW050
ハワイ時間29日02-09時:風向不定4ノットの風
09-20時:030度から15ノットの風

20時-30日02時:030度から8ノットの風


サイパン空港
TAF PGSN 291720Z 291212 07007KT P6SM VCSH FEW020
マリアナ時間29日22時-30日22時:070度から7ノットの風

コメント
この記事をはてなブックマークに追加

10/28-29の航空気象通報(国内、海外)

2008年10月28日 23時05分25秒 | TAF
羽田空港
TAF RJTT 280840Z 281812 34008KT 9999 FEW030 SCT060
BECMG 0003 20006KT
BECMG 0609 36010KT
日本時間29日03-09時:340度から8ノットの風
09-12時:風が変化
12-15時:200度から6ノットの風
15-18時:風が変化
18-21時:360度から10ノットの風


那覇空港
TAF ROAH 280841Z 281812 02008KT 9999 FEW030
日本時間29日03-21時:020度から8ノットの風


マウイのカフルイ空港
PHOG 281136Z 281212 12006KT P6SM OVC250
FM1900 01008KT P6SM OVC250
FM2300 02012G18KT P6SM OVC250
ハワイ時間28日02-09時:120度から6ノットの風
09-13時:010度から8ノットの風
13時-29日02時:020度から12ノット、突風18ノット


サイパン空港
PGSN 281120Z 281212 06008KT P6SM VCSH SCT020 SCT060
マリアナ時間28日22時-29日22時:060度から8ノットの風

コメント
この記事をはてなブックマークに追加

10/26-27の航空気象通報(国内、海外)

2008年10月27日 23時45分20秒 | TAF
羽田空港
TAF RJTT 270844Z 271812 35009KT 9999 FEW030
BECMG 0306 17006KT
日本時間27日03-12時:350度から9ノットの風
12-15時:風が変化
15-21時:170度から6ノットの風


那覇空港
TAF ROAH 270841Z 271812 02010KT 9999 FEW020 BKN045
日本時間27日03-21時:020度から10ノットの風


マウイのカフルイ空港
PHOG 271128Z 271212 15004KT P6SM SKC
FM2000 02010KT P6SM FEW030 SCT060
FM0500 12006KT P6SM BKN250
ハワイ時間26日02-10時:150度から4ノットの風
10-19時:020度から10ノットの風

19時-27日02時:120度から6ノットの風


サイパン空港
PGSN 271120Z 271212 09009KT P6SM VCSH SCT020 SCT120
マリアナ時間26日22時-27日22時:090度から9ノットの風

コメント
この記事をはてなブックマークに追加